createdAt,value
2019-05-07T00:01:57.175Z,12.65
2019-05-07T00:04:28.153Z,11.05
2019-05-07T00:07:02.370Z,10.63
2019-05-07T00:09:43.252Z,9.78
2019-05-07T00:12:19.098Z,9.28
2019-05-07T00:14:58.938Z,9.20
2019-05-07T00:17:28.870Z,12.80
2019-05-07T00:20:02.292Z,12.43
2019-05-07T00:22:34.384Z,9.95
2019-05-07T00:25:08.438Z,11.43
2019-05-07T00:27:42.770Z,11.78
2019-05-07T00:30:14.131Z,12.23
2019-05-07T00:32:46.156Z,17.25
2019-05-07T00:35:25.954Z,11.75
2019-05-07T00:38:03.506Z,18.27
2019-05-07T00:40:35.232Z,10.38
2019-05-07T00:43:12.672Z,17.27
2019-05-07T00:45:50.254Z,16.48
2019-05-07T00:48:26.201Z,14.90
2019-05-07T00:51:19.034Z,11.97
2019-05-07T00:53:52.085Z,13.98
2019-05-07T00:56:22.411Z,16.80
2019-05-07T00:58:52.951Z,15.50
2019-05-07T01:01:25.110Z,17.27
2019-05-07T01:03:59.391Z,13.90
2019-05-07T01:06:30.402Z,13.65
2019-05-07T01:09:09.526Z,14.93
2019-05-07T01:11:47.526Z,13.48
2019-05-07T01:14:19.628Z,12.58
2019-05-07T01:16:55.182Z,15.03
2019-05-07T01:19:35.154Z,17.05
2019-05-07T01:22:12.630Z,11.95
2019-05-07T01:24:53.307Z,12.88
2019-05-07T01:27:23.413Z,15.25
2019-05-07T01:29:53.522Z,13.60
2019-05-07T01:32:27.866Z,15.80
2019-05-07T01:35:02.473Z,12.37
2019-05-07T01:37:43.415Z,11.97
2019-05-07T01:40:14.459Z,13.40
2019-05-07T01:42:47.755Z,14.07
2019-05-07T01:45:17.914Z,12.75
2019-05-07T01:47:47.994Z,10.48
2019-05-07T01:50:24.058Z,12.75
2019-05-07T01:52:55.102Z,10.15
2019-05-07T01:55:27.134Z,13.38
2019-05-07T01:57:59.203Z,9.00
2019-05-07T02:00:29.326Z,10.63
2019-05-07T02:03:23.116Z,14.60
2019-05-07T02:05:56.598Z,15.13
2019-05-07T02:08:45.366Z,13.30
2019-05-07T02:11:19.074Z,14.87
2019-05-07T02:13:50.183Z,14.73
2019-05-07T02:16:24.390Z,15.08
2019-05-07T02:18:55.477Z,8.20
2019-05-07T02:21:26.514Z,10.93
2019-05-07T02:24:03.392Z,15.18
2019-05-07T02:26:42.852Z,11.80
2019-05-07T02:29:12.995Z,11.08
2019-05-07T02:31:45.019Z,14.63
2019-05-07T02:34:16.036Z,10.93
2019-05-07T02:36:46.124Z,12.68
2019-05-07T02:39:27.868Z,12.53
2019-05-07T02:41:57.970Z,13.00
2019-05-07T02:44:28.152Z,13.40
2019-05-07T02:47:04.643Z,16.42
2019-05-07T02:49:43.931Z,13.13
2019-05-07T02:52:32.440Z,12.35
2019-05-07T02:55:10.212Z,13.85
2019-05-07T02:57:46.418Z,12.98
2019-05-07T03:00:24.356Z,11.18
2019-05-07T03:02:54.623Z,15.78
2019-05-07T03:05:38.928Z,12.40
2019-05-07T03:08:16.451Z,12.05
2019-05-07T03:10:47.760Z,17.87
2019-05-07T03:13:17.923Z,12.13
2019-05-07T03:15:54.796Z,12.10
2019-05-07T03:18:33.399Z,11.75
2019-05-07T03:21:12.762Z,20.88
2019-05-07T03:24:03.437Z,12.50
2019-05-07T03:26:36.330Z,11.53
2019-05-07T03:29:23.621Z,12.70
2019-05-07T03:31:57.133Z,12.58
2019-05-07T03:34:36.648Z,11.20
2019-05-07T03:37:09.215Z,11.97
2019-05-07T03:40:14.052Z,12.75
2019-05-07T03:43:13.932Z,12.53
2019-05-07T03:45:55.234Z,15.13
2019-05-07T03:48:33.459Z,17.25
2019-05-07T03:51:03.981Z,16.70
2019-05-07T03:53:34.359Z,14.15
2019-05-07T03:56:08.487Z,21.20
2019-05-07T03:58:43.370Z,17.80
2019-05-07T04:01:33.456Z,15.50
2019-05-07T04:04:04.308Z,16.55
2019-05-07T04:06:46.471Z,15.75
2019-05-07T04:09:16.625Z,13.90
2019-05-07T04:11:56.031Z,19.30
2019-05-07T04:14:27.039Z,13.70
2019-05-07T04:17:13.296Z,18.57
2019-05-07T04:19:32.854Z,13.40
2019-05-07T04:22:04.300Z,14.43
2019-05-07T04:24:36.181Z,14.13
2019-05-07T04:27:07.953Z,16.87
2019-05-07T04:29:42.926Z,18.05
2019-05-07T04:32:14.559Z,17.52
2019-05-07T04:34:53.464Z,13.25
2019-05-07T04:37:38.863Z,19.70
2019-05-07T04:40:09.491Z,15.90
2019-05-07T04:42:46.976Z,20.40
2019-05-07T04:45:19.408Z,16.85
2019-05-07T04:47:49.484Z,14.20
2019-05-07T04:50:42.025Z,16.93
2019-05-07T04:53:02.892Z,18.98
2019-05-07T04:55:33.803Z,16.57
2019-05-07T04:58:08.715Z,17.70
2019-05-07T05:00:43.234Z,14.18
2019-05-07T05:03:26.028Z,21.77
2019-05-07T05:06:02.888Z,19.35
2019-05-07T05:08:43.467Z,18.75
2019-05-07T05:11:47.007Z,19.90
2019-05-07T05:14:22.899Z,17.35
2019-05-07T05:16:53.079Z,17.55
2019-05-07T05:19:23.189Z,17.65
2019-05-07T05:22:24.914Z,28.07
2019-05-07T05:25:23.534Z,22.93
2019-05-07T05:27:54.591Z,16.50
2019-05-07T05:30:29.346Z,18.05
2019-05-07T05:33:02.231Z,23.10
2019-05-07T05:35:38.275Z,20.57
2019-05-07T05:38:09.348Z,24.00
2019-05-07T05:40:52.240Z,16.15
2019-05-07T05:43:32.154Z,18.52
2019-05-07T05:46:04.295Z,12.78
2019-05-07T05:48:34.367Z,11.70
2019-05-07T05:51:14.391Z,11.08
2019-05-07T05:53:52.453Z,20.82
2019-05-07T05:56:47.372Z,13.38
2019-05-07T05:59:32.493Z,12.70
2019-05-07T06:02:07.575Z,13.38
2019-05-07T06:04:52.818Z,14.80
2019-05-07T06:07:33.540Z,19.98
2019-05-07T06:10:17.891Z,11.90
2019-05-07T06:12:52.783Z,10.48
2019-05-07T06:15:27.463Z,12.18
2019-05-07T06:18:06.889Z,10.95
2019-05-07T06:20:39.004Z,9.93
2019-05-07T06:23:15.501Z,13.05
2019-05-07T06:25:57.967Z,12.33
2019-05-07T06:28:32.851Z,10.32
2019-05-07T06:31:02.287Z,14.45
2019-05-07T06:33:32.538Z,15.63
2019-05-07T06:36:02.940Z,10.77
2019-05-07T06:38:35.748Z,10.05
2019-05-07T06:41:23.327Z,10.80
2019-05-07T06:43:57.568Z,11.33
2019-05-07T06:46:33.484Z,11.17
2019-05-07T06:49:12.528Z,9.47
2019-05-07T06:51:44.034Z,11.27
2019-05-07T06:54:15.084Z,9.57
2019-05-07T06:56:48.801Z,9.83
2019-05-07T06:59:19.857Z,8.67
2019-05-07T07:02:13.764Z,9.30
2019-05-07T07:05:08.528Z,7.20
2019-05-07T07:07:55.524Z,7.63
2019-05-07T07:10:33.300Z,7.57
2019-05-07T07:13:06.389Z,8.17
2019-05-07T07:15:42.749Z,8.97
2019-05-07T07:18:23.087Z,6.13
2019-05-07T07:21:02.303Z,6.77
2019-05-07T07:23:32.765Z,6.30
2019-05-07T07:26:08.650Z,7.40
2019-05-07T07:28:42.927Z,8.97
2019-05-07T07:31:22.658Z,9.00
2019-05-07T07:33:57.352Z,6.17
2019-05-07T07:36:42.228Z,5.37
2019-05-07T07:39:12.911Z,8.20
2019-05-07T07:41:52.213Z,6.27
2019-05-07T07:44:23.402Z,4.83
2019-05-07T07:46:53.476Z,5.00
2019-05-07T07:49:32.329Z,6.57
2019-05-07T07:52:04.345Z,8.20
2019-05-07T07:54:43.556Z,4.33
2019-05-07T07:57:32.417Z,8.93
2019-05-07T08:00:08.328Z,6.03
2019-05-07T08:02:42.423Z,5.43
2019-05-07T08:05:13.489Z,5.43
2019-05-07T08:07:49.340Z,7.60
2019-05-07T08:10:22.009Z,5.57
2019-05-07T08:12:52.557Z,4.07
2019-05-07T08:15:24.691Z,6.53
2019-05-07T08:17:56.096Z,5.23
2019-05-07T08:20:35.013Z,5.53
2019-05-07T08:23:05.163Z,5.43
2019-05-07T08:25:47.810Z,5.20
2019-05-07T08:28:23.515Z,4.70
2019-05-07T08:30:58.084Z,6.70
2019-05-07T08:33:35.613Z,4.17
2019-05-07T08:36:14.722Z,4.80
2019-05-07T08:38:52.766Z,5.83
2019-05-07T08:41:26.647Z,6.63
2019-05-07T08:44:11.566Z,5.50
2019-05-07T08:46:55.257Z,7.13
2019-05-07T08:49:36.943Z,4.60
2019-05-07T08:52:03.097Z,4.47
2019-05-07T08:54:35.561Z,4.30
2019-05-07T08:57:12.248Z,4.77
2019-05-07T08:59:57.148Z,4.13
2019-05-07T09:02:15.399Z,9.87
2019-05-07T09:04:48.479Z,4.17
2019-05-07T09:07:22.029Z,4.03
2019-05-07T09:09:58.059Z,6.53
2019-05-07T09:12:28.743Z,6.20
2019-05-07T09:15:06.314Z,4.40
2019-05-07T09:17:39.351Z,4.90
2019-05-07T09:20:16.635Z,9.00
2019-05-07T09:22:51.706Z,4.10
2019-05-07T09:25:28.039Z,4.00
2019-05-07T09:27:58.139Z,5.47
2019-05-07T09:30:54.495Z,7.40
2019-05-07T09:33:32.163Z,7.87
2019-05-07T09:36:07.971Z,5.60
2019-05-07T09:38:38.979Z,3.87
2019-05-07T09:41:12.071Z,3.80
2019-05-07T09:43:42.532Z,3.70
2019-05-07T09:46:12.646Z,3.67
2019-05-07T09:48:52.358Z,5.03
2019-05-07T09:51:23.520Z,4.43
2019-05-07T09:53:53.603Z,4.03
2019-05-07T09:56:26.707Z,4.23
2019-05-07T09:59:16.127Z,7.77
2019-05-07T10:01:48.203Z,6.00
2019-05-07T10:04:18.404Z,5.73
2019-05-07T10:06:51.896Z,4.50
2019-05-07T10:09:25.559Z,4.10
2019-05-07T10:11:57.291Z,4.00
2019-05-07T10:14:27.507Z,5.90
2019-05-07T10:17:14.418Z,5.90
2019-05-07T10:19:44.648Z,5.40
2019-05-07T10:22:15.803Z,6.73
2019-05-07T10:24:45.879Z,6.37
2019-05-07T10:27:16.165Z,5.63
2019-05-07T10:29:48.007Z,4.37
2019-05-07T10:32:18.243Z,5.83
2019-05-07T10:34:48.803Z,7.57
2019-05-07T10:37:18.955Z,4.20
2019-05-07T10:39:49.223Z,5.33
2019-05-07T10:42:22.600Z,4.13
2019-05-07T10:45:10.163Z,13.27
2019-05-07T10:47:41.961Z,4.83
2019-05-07T10:50:17.055Z,4.50
2019-05-07T10:52:47.275Z,5.03
2019-05-07T10:55:17.569Z,6.03
2019-05-07T10:57:47.663Z,5.17
2019-05-07T11:00:22.588Z,8.60
2019-05-07T11:02:53.142Z,6.33
2019-05-07T11:05:23.229Z,6.50
2019-05-07T11:07:53.983Z,5.67
2019-05-07T11:10:24.155Z,4.50
2019-05-07T11:12:54.311Z,4.87
2019-05-07T11:15:24.420Z,5.93
2019-05-07T11:18:02.715Z,4.90
2019-05-07T11:20:45.641Z,8.77
2019-05-07T11:23:05.011Z,5.33
2019-05-07T11:25:35.271Z,6.40
2019-05-07T11:28:05.567Z,5.40
2019-05-07T11:30:36.689Z,3.93
2019-05-07T11:33:08.701Z,6.53
2019-05-07T11:35:38.783Z,4.10
2019-05-07T11:38:18.805Z,4.67
2019-05-07T11:40:42.732Z,5.93
2019-05-07T11:43:22.127Z,6.60
2019-05-07T11:45:54.334Z,4.57
2019-05-07T11:48:26.380Z,6.50
2019-05-07T11:51:03.796Z,5.83
2019-05-07T11:53:32.757Z,5.67
2019-05-07T11:56:02.850Z,6.40
2019-05-07T11:58:32.937Z,6.40
2019-05-07T12:01:05.036Z,6.97
2019-05-07T12:03:37.067Z,7.80
2019-05-07T12:06:07.155Z,4.20
2019-05-07T12:08:44.967Z,5.10
2019-05-07T12:11:09.127Z,10.37
2019-05-07T12:13:42.540Z,7.27
2019-05-07T12:16:14.103Z,8.40
2019-05-07T12:18:43.759Z,5.67
2019-05-07T12:21:20.665Z,5.33
2019-05-07T12:23:45.753Z,6.93
2019-05-07T12:26:15.867Z,6.47
2019-05-07T12:28:46.039Z,6.07
2019-05-07T12:31:33.728Z,6.83
2019-05-07T12:34:08.515Z,6.70
2019-05-07T12:36:38.615Z,4.20
2019-05-07T12:39:09.292Z,5.60
2019-05-07T12:41:39.451Z,5.57
2019-05-07T12:44:13.030Z,6.03
2019-05-07T12:46:43.211Z,5.33
2019-05-07T12:49:13.318Z,4.73
2019-05-07T12:51:45.047Z,3.97
2019-05-07T12:54:19.535Z,7.87
2019-05-07T12:56:51.874Z,4.63
2019-05-07T12:59:21.883Z,5.30
2019-05-07T13:01:56.523Z,10.17
2019-05-07T13:04:32.478Z,7.33
2019-05-07T13:07:16.976Z,7.40
2019-05-07T13:09:47.067Z,4.20
2019-05-07T13:12:18.131Z,7.13
2019-05-07T13:14:48.220Z,5.23
2019-05-07T13:17:22.424Z,4.90
2019-05-07T13:19:52.711Z,4.17
2019-05-07T13:22:22.819Z,4.83
2019-05-07T13:24:53.098Z,4.57
2019-05-07T13:27:23.287Z,5.40
2019-05-07T13:29:53.643Z,4.63
2019-05-07T13:32:27.143Z,4.77
2019-05-07T13:34:57.675Z,5.50
2019-05-07T13:37:32.495Z,4.23
2019-05-07T13:40:12.563Z,4.50
2019-05-07T13:42:52.221Z,5.57
2019-05-07T13:45:24.163Z,4.97
2019-05-07T13:47:55.917Z,6.40
2019-05-07T13:50:26.055Z,4.60
2019-05-07T13:52:56.179Z,5.93
2019-05-07T13:55:26.251Z,4.30
2019-05-07T13:57:58.303Z,5.97
2019-05-07T14:00:32.565Z,7.20
2019-05-07T14:03:03.220Z,5.67
2019-05-07T14:05:33.516Z,5.43
2019-05-07T14:08:04.660Z,5.43
2019-05-07T14:10:35.079Z,5.03
2019-05-07T14:13:11.457Z,6.60
2019-05-07T14:15:45.715Z,4.57
2019-05-07T14:18:17.821Z,7.00
2019-05-07T14:20:48.571Z,6.60
2019-05-07T14:23:21.752Z,4.87
2019-05-07T14:25:54.775Z,5.27
2019-05-07T14:28:24.879Z,4.63
2019-05-07T14:30:54.956Z,6.70
2019-05-07T14:33:46.895Z,4.47
2019-05-07T14:36:18.640Z,4.60
2019-05-07T14:38:52.012Z,5.73
2019-05-07T14:41:25.353Z,5.03
2019-05-07T14:43:58.383Z,6.70
2019-05-07T14:46:45.614Z,10.50
2019-05-07T14:49:07.620Z,7.33
2019-05-07T14:51:37.910Z,5.80
2019-05-07T14:54:09.135Z,6.90
2019-05-07T14:56:39.525Z,5.07
2019-05-07T14:59:12.810Z,5.43
2019-05-07T15:01:43.932Z,5.40
2019-05-07T15:04:22.037Z,5.27
2019-05-07T15:06:52.933Z,6.60
2019-05-07T15:09:24.279Z,5.20
2019-05-07T15:12:02.206Z,8.13
2019-05-07T15:14:39.428Z,5.33
2019-05-07T15:17:12.895Z,5.40
2019-05-07T15:19:43.214Z,5.57
2019-05-07T15:22:24.157Z,7.00
2019-05-07T15:24:54.324Z,5.63
2019-05-07T15:27:29.612Z,4.40
2019-05-07T15:30:02.125Z,6.27
2019-05-07T15:32:33.516Z,8.80
2019-05-07T15:35:04.884Z,5.40
2019-05-07T15:37:35.044Z,13.20
2019-05-07T15:40:09.159Z,5.77
2019-05-07T15:42:39.274Z,8.57
2019-05-07T15:45:17.072Z,5.67
2019-05-07T15:47:48.981Z,5.63
2019-05-07T15:50:19.131Z,5.37
2019-05-07T15:52:58.141Z,6.03
2019-05-07T15:55:28.796Z,5.30
2019-05-07T15:57:59.724Z,5.73
2019-05-07T16:00:33.656Z,5.90
2019-05-07T16:03:18.155Z,5.40
2019-05-07T16:05:48.234Z,6.70
2019-05-07T16:08:22.664Z,5.37
2019-05-07T16:10:53.215Z,7.27
2019-05-07T16:13:25.100Z,6.27
2019-05-07T16:15:57.424Z,7.20
2019-05-07T16:18:57.408Z,5.37
2019-05-07T16:21:27.592Z,6.60
2019-05-07T16:24:04.212Z,5.80
2019-05-07T16:26:34.345Z,7.17
2019-05-07T16:29:04.814Z,11.07
2019-05-07T16:31:35.029Z,6.37
2019-05-07T16:34:05.112Z,6.43
2019-05-07T16:36:36.221Z,22.80
2019-05-07T16:39:07.687Z,9.73
2019-05-07T16:41:38.709Z,5.13
2019-05-07T16:44:08.801Z,9.67
2019-05-07T16:46:39.244Z,6.20
2019-05-07T16:49:14.403Z,4.80
2019-05-07T16:51:47.436Z,6.43
2019-05-07T16:54:17.496Z,6.63
2019-05-07T16:57:05.628Z,6.23
2019-05-07T16:59:36.673Z,5.17
2019-05-07T17:02:08.417Z,6.00
2019-05-07T17:05:08.064Z,6.00
2019-05-07T17:07:42.825Z,5.87
2019-05-07T17:10:22.916Z,10.90
2019-05-07T17:12:53.053Z,11.43
2019-05-07T17:15:28.840Z,8.03
2019-05-07T17:18:02.789Z,6.50
2019-05-07T17:20:45.268Z,7.40
2019-05-07T17:23:15.388Z,7.13
2019-05-07T17:25:56.544Z,9.90
2019-05-07T17:28:27.795Z,6.40
2019-05-07T17:31:03.744Z,7.30
2019-05-07T17:33:42.313Z,8.07
2019-05-07T17:36:12.756Z,6.50
2019-05-07T17:38:43.025Z,7.27
2019-05-07T17:41:23.673Z,7.77
2019-05-07T17:43:54.894Z,8.40
2019-05-07T17:46:25.936Z,6.60
2019-05-07T17:48:56.022Z,7.73
2019-05-07T17:51:44.972Z,8.13
2019-05-07T17:54:15.356Z,7.80
2019-05-07T17:56:46.472Z,6.80
2019-05-07T17:59:16.604Z,8.07
2019-05-07T18:01:55.260Z,7.23
2019-05-07T18:04:29.164Z,10.10
2019-05-07T18:07:00.480Z,9.13
2019-05-07T18:09:31.861Z,9.73
2019-05-07T18:12:03.124Z,17.33
2019-05-07T18:14:35.223Z,12.23
2019-05-07T18:17:07.876Z,9.33
2019-05-07T18:19:38.916Z,6.63
2019-05-07T18:22:12.795Z,7.65
2019-05-07T18:24:42.760Z,10.63
2019-05-07T18:27:15.437Z,7.37
2019-05-07T18:29:52.251Z,8.10
2019-05-07T18:32:29.504Z,10.13
2019-05-07T18:35:02.386Z,10.13
2019-05-07T18:37:34.294Z,9.30
2019-05-07T18:40:18.401Z,9.03
2019-05-07T18:42:48.568Z,10.50
2019-05-07T18:45:18.680Z,11.15
2019-05-07T18:47:48.824Z,14.68
2019-05-07T18:50:18.988Z,15.83
2019-05-07T18:52:52.357Z,14.23
2019-05-07T18:55:22.841Z,12.40
2019-05-07T18:57:53.088Z,12.18
2019-05-07T19:00:25.126Z,9.30
2019-05-07T19:03:03.165Z,9.18
2019-05-07T19:05:32.874Z,10.00
2019-05-07T19:08:08.077Z,10.63
2019-05-07T19:10:35.784Z,10.68
2019-05-07T19:13:06.572Z,8.68
2019-05-07T19:15:36.672Z,8.20
2019-05-07T19:18:12.957Z,13.48
2019-05-07T19:20:42.508Z,9.30
2019-05-07T19:23:13.008Z,11.55
2019-05-07T19:25:48.956Z,9.15
2019-05-07T19:28:19.077Z,12.13
2019-05-07T19:30:52.913Z,20.43
2019-05-07T19:33:26.690Z,12.75
2019-05-07T19:35:55.078Z,11.25
2019-05-07T19:38:32.456Z,13.88
2019-05-07T19:41:04.609Z,16.65
2019-05-07T19:43:37.708Z,13.50
2019-05-07T19:46:07.965Z,15.72
2019-05-07T19:48:38.976Z,10.98
2019-05-07T19:51:09.060Z,14.80
2019-05-07T19:53:39.156Z,17.98
2019-05-07T19:56:10.872Z,13.60
2019-05-07T19:58:44.108Z,17.73
2019-05-07T20:01:18.589Z,19.75
2019-05-07T20:03:48.656Z,20.68
2019-05-07T20:06:18.756Z,14.23
2019-05-07T20:08:48.925Z,16.67
2019-05-07T20:11:42.487Z,15.90
2019-05-07T20:14:13.032Z,12.30
2019-05-07T20:16:42.616Z,16.65
2019-05-07T20:19:22.967Z,14.38
2019-05-07T20:21:53.148Z,13.25
2019-05-07T20:24:24.160Z,17.70
2019-05-07T20:26:54.240Z,17.95
2019-05-07T20:29:32.531Z,16.95
2019-05-07T20:32:03.566Z,16.82
2019-05-07T20:34:34.568Z,13.22
2019-05-07T20:37:05.668Z,12.70
2019-05-07T20:39:42.808Z,13.28
2019-05-07T20:42:14.858Z,16.48
2019-05-07T20:44:45.908Z,14.93
2019-05-07T20:47:16.988Z,12.93
2019-05-07T20:50:00.057Z,8.45
2019-05-07T20:52:29.281Z,9.15
2019-05-07T20:55:01.954Z,10.30
2019-05-07T20:57:36.416Z,8.63
2019-05-07T21:00:14.253Z,14.38
2019-05-07T21:03:23.784Z,9.85
2019-05-07T21:05:54.092Z,14.03
2019-05-07T21:08:24.541Z,11.48
2019-05-07T21:10:54.710Z,9.03
2019-05-07T21:13:35.007Z,7.83
2019-05-07T21:16:05.568Z,8.18
2019-05-07T21:18:36.593Z,8.18
2019-05-07T21:21:12.685Z,9.53
2019-05-07T21:23:43.365Z,8.83
2019-05-07T21:26:13.840Z,8.05
2019-05-07T21:28:49.700Z,7.87
2019-05-07T21:31:19.788Z,13.83
2019-05-07T21:33:52.606Z,9.80
2019-05-07T21:36:23.605Z,9.13
2019-05-07T21:38:54.693Z,13.45
2019-05-07T21:41:28.413Z,9.40
2019-05-07T21:44:03.140Z,10.30
2019-05-07T21:46:35.148Z,11.15
2019-05-07T21:49:08.188Z,11.70
2019-05-07T21:51:38.280Z,11.20
2019-05-07T21:54:23.690Z,7.80
2019-05-07T21:57:02.157Z,11.10
2019-05-07T21:59:35.821Z,10.55
2019-05-07T22:02:12.697Z,10.25
2019-05-07T22:04:44.789Z,9.30
2019-05-07T22:07:14.970Z,11.28
2019-05-07T22:09:45.068Z,15.88
2019-05-07T22:12:17.069Z,11.63
2019-05-07T22:14:47.160Z,10.68
2019-05-07T22:17:26.476Z,11.22
2019-05-07T22:19:56.576Z,10.20
2019-05-07T22:22:29.356Z,8.45
2019-05-07T22:24:59.446Z,8.45
2019-05-07T22:27:32.748Z,10.08
2019-05-07T22:30:06.132Z,17.40
2019-05-07T22:32:54.612Z,14.40
2019-05-07T22:35:31.388Z,13.13
2019-05-07T22:38:03.763Z,13.70
2019-05-07T22:40:33.272Z,12.28
2019-05-07T22:43:12.994Z,14.35
2019-05-07T22:45:43.121Z,13.43
2019-05-07T22:48:16.293Z,12.78
2019-05-07T22:50:54.184Z,13.78
2019-05-07T22:53:24.272Z,8.93
2019-05-07T22:55:54.361Z,17.82
2019-05-07T22:58:35.440Z,11.95
2019-05-07T23:01:07.372Z,11.48
2019-05-07T23:03:44.324Z,14.65
2019-05-07T23:06:18.560Z,13.72
2019-05-07T23:08:49.644Z,23.67
2019-05-07T23:11:19.741Z,19.52
2019-05-07T23:13:55.017Z,15.50
2019-05-07T23:16:25.992Z,15.58
2019-05-07T23:18:57.276Z,19.15
2019-05-07T23:21:29.308Z,16.57
2019-05-07T23:24:01.380Z,16.60
2019-05-07T23:26:48.137Z,20.25
2019-05-07T23:29:12.340Z,13.60
2019-05-07T23:31:52.900Z,18.27
2019-05-07T23:34:22.392Z,13.80
2019-05-07T23:36:53.422Z,14.03
2019-05-07T23:39:31.180Z,16.10
2019-05-07T23:42:03.855Z,16.75
2019-05-07T23:44:41.449Z,17.85
2019-05-07T23:47:12.682Z,14.15
2019-05-07T23:49:43.106Z,13.78
2019-05-07T23:52:22.617Z,13.35
2019-05-07T23:54:58.528Z,11.93
2019-05-07T23:57:34.664Z,12.45
